GMME/RBA METAR and TAF weather

Enter ICAO airport designator
Station Type Date Time Source
GMME METAR 2020/09/23 02:30 UTC NOAA

GMME 230230Z 00000KT 6000 NSC 20/19 Q1017 NOSIG


Station Type Date Time Source
GMME Decoded METAR 2020/09/23 02:30 UTC NOAA

Rabat-Sale, Morocco (GMME) 34-03N 006-46W 75M
Sep 22, 2020 - 10:30 PM EDT / 2020.09.23 0230 UTC
Wind: Calm:0
Visibility: 3 mile(s):0
Temperature: 68 F (20 C)
Dew Point: 66 F (19 C)
Relative Humidity: 93%
Pressure (altimeter): 30.03 in. Hg (1017 hPa)
ob: GMME 230230Z 00000KT 6000 NSC 20/19 Q1017 NOSIG
cycle: 2

Station Type Date Time Source
GMME TAF 2020/09/22 18:33 UTC NOAA

TAF TAF GMME 221700Z 2218/2324 32010KT 8000 NSC
TEMPO 2222/2310 VRB02KT 3000 BR BKN008
BECMG 2303/2307 0500 FG OVC004

Example: see airport list